Strona główna
METAR-TAF:

METAR-TAF

Lotnisko :

Clayton Lake, Maine, Stany Zjednoczone

Szerokość geograficzna: 46-37N, Długość geograficzna: 069-32W, wysokość: 314 m

Aktualna obserwacja pogody

Raport powstał 1 godzina i 2 minut temu, godzina 01:16 UTC
Wiatr 11 kt od południowo-południowy zachód w porywach dochodzący do 18 kt
Temperatura -2°C
Wilgotność 80%
Ciśnienie 1012 hPa

METAR: K40B 170116Z AUTO 20011G18KT M02/M05 A2988 RMK AO1 SLP141 T10191053 50006

czas: 21:18 (02:18 UTC)


TAF: brakujący

Obserwacja i prognoza pogody dla ponad 4000 lotnisk (raport METAR i TAF).

Dostępne stacje oznaczono żółtymi i czerwonymi punktami na mapie.

Najedź kursorem aby zobaczyć nazwę stacji.

Kliknij aby zobaczyć obserwacje i prognozy pogody.

Aby zmienić mapę: kliknij na zielony przycisk z czarnym krzyżykiem, aby powiększyć; na zielony przycisk z myślnikiem, aby pomniejszyć; na zielone strzałki, aby przejść do map sąsiednich.


METAR-TAF: